createdAt,value
2022-12-17T00:01:42.308Z,13.38
2022-12-17T00:04:33.453Z,14.95
2022-12-17T00:07:24.146Z,13.60
2022-12-17T00:10:14.336Z,16.17
2022-12-17T00:13:05.915Z,15.82
2022-12-17T00:15:56.653Z,14.52
2022-12-17T00:21:58.826Z,12.93
2022-12-17T00:24:49.141Z,13.43
2022-12-17T00:27:40.309Z,13.07
2022-12-17T00:30:30.646Z,12.10
2022-12-17T00:33:21.788Z,11.85
2022-12-17T00:36:14.356Z,12.98
2022-12-17T00:39:05.409Z,12.00
2022-12-17T00:41:55.745Z,12.57
2022-12-17T00:44:47.852Z,14.07
2022-12-17T00:47:38.108Z,13.40
2022-12-17T00:50:29.792Z,12.52
2022-12-17T00:53:21.013Z,13.90
2022-12-17T00:56:12.215Z,12.65
2022-12-17T00:59:03.096Z,13.18
2022-12-17T01:01:53.471Z,13.68
2022-12-17T01:04:45.018Z,14.05
2022-12-17T01:07:35.970Z,12.53
2022-12-17T01:10:27.355Z,12.18
2022-12-17T01:13:18.245Z,11.77
2022-12-17T01:16:11.176Z,11.98
2022-12-17T01:19:02.436Z,12.68
2022-12-17T01:21:52.658Z,12.30
2022-12-17T01:24:44.406Z,13.15
2022-12-17T01:27:34.618Z,11.60
2022-12-17T01:30:26.967Z,12.32
2022-12-17T01:33:23.510Z,11.57
2022-12-17T01:36:18.635Z,11.97
2022-12-17T01:39:09.370Z,12.52
2022-12-17T01:42:00.205Z,12.77
2022-12-17T01:45:06.661Z,10.95
2022-12-17T01:48:17.062Z,11.50
2022-12-17T01:51:15.525Z,10.43
2022-12-17T01:54:09.590Z,10.18
2022-12-17T01:57:02.705Z,10.95
2022-12-17T02:00:27.034Z,11.02
2022-12-17T02:03:19.344Z,10.73
2022-12-17T02:06:24.473Z,10.80
2022-12-17T02:09:34.301Z,10.05
2022-12-17T02:12:47.127Z,11.15
2022-12-17T02:15:44.780Z,11.50
2022-12-17T02:18:56.670Z,10.60
2022-12-17T02:21:50.190Z,9.83
2022-12-17T02:24:52.940Z,9.23
2022-12-17T02:27:44.797Z,10.68
2022-12-17T02:30:37.935Z,11.32
2022-12-17T02:33:30.750Z,11.23
2022-12-17T02:36:26.233Z,13.27
2022-12-17T02:39:17.080Z,13.82
2022-12-17T02:42:13.419Z,16.63
2022-12-17T02:45:04.804Z,13.90
2022-12-17T02:48:03.008Z,14.32
2022-12-17T02:50:53.647Z,9.67
2022-12-17T02:53:44.811Z,8.30
2022-12-17T02:56:36.324Z,9.57
2022-12-17T02:59:27.699Z,10.80
2022-12-17T03:02:19.696Z,8.35
2022-12-17T03:05:43.582Z,8.60
2022-12-17T03:08:29.729Z,7.38
2022-12-17T03:11:21.528Z,8.50
2022-12-17T03:14:11.872Z,8.25
2022-12-17T03:17:05.593Z,8.40
2022-12-17T03:19:55.853Z,9.03
2022-12-17T03:22:46.997Z,8.05
2022-12-17T03:25:37.814Z,8.40
2022-12-17T03:28:30.632Z,8.00
2022-12-17T03:31:21.129Z,8.07
2022-12-17T03:34:12.886Z,8.13
2022-12-17T03:37:03.736Z,7.82
2022-12-17T03:39:54.376Z,7.07
2022-12-17T03:42:45.676Z,7.10
2022-12-17T03:45:37.371Z,7.43
2022-12-17T03:48:32.308Z,6.93
2022-12-17T03:51:24.080Z,6.80
2022-12-17T03:54:14.893Z,7.50
2022-12-17T03:57:05.532Z,7.05
2022-12-17T03:59:56.579Z,6.57
2022-12-17T04:03:00.721Z,7.33
2022-12-17T04:05:52.078Z,6.80
2022-12-17T04:08:42.284Z,6.70
2022-12-17T04:11:32.931Z,7.00
2022-12-17T04:14:23.265Z,7.13
2022-12-17T04:17:13.970Z,8.27
2022-12-17T04:20:04.240Z,8.65
2022-12-17T04:22:55.386Z,10.05
2022-12-17T04:25:45.681Z,8.98
2022-12-17T04:28:36.825Z,9.43
2022-12-17T04:31:27.552Z,7.53
2022-12-17T04:34:18.768Z,8.82
2022-12-17T04:37:08.943Z,8.18
2022-12-17T04:39:59.868Z,7.95
2022-12-17T04:42:50.113Z,6.70
2022-12-17T04:45:41.156Z,5.90
2022-12-17T04:48:31.405Z,6.13
2022-12-17T04:51:22.476Z,6.10
2022-12-17T04:54:12.694Z,6.93
2022-12-17T04:57:03.813Z,6.72
2022-12-17T04:59:54.563Z,6.70
2022-12-17T05:02:45.727Z,7.57
2022-12-17T05:05:36.078Z,7.53
2022-12-17T05:08:27.108Z,7.68
2022-12-17T05:11:25.136Z,7.07
2022-12-17T05:14:16.277Z,6.63
2022-12-17T05:17:06.503Z,8.52
2022-12-17T05:19:57.648Z,7.70
2022-12-17T05:22:48.558Z,7.50
2022-12-17T05:25:39.720Z,7.43
2022-12-17T05:28:29.958Z,8.13
2022-12-17T05:31:21.617Z,7.50
2022-12-17T05:34:12.842Z,7.47
2022-12-17T05:37:20.354Z,7.68
2022-12-17T05:40:12.856Z,7.68
2022-12-17T05:43:25.070Z,7.80
2022-12-17T05:46:15.911Z,7.25
2022-12-17T05:49:06.365Z,9.02
2022-12-17T05:51:57.529Z,10.30
2022-12-17T05:54:50.578Z,9.52
2022-12-17T05:57:41.852Z,7.40
2022-12-17T06:00:32.887Z,7.07
2022-12-17T06:03:24.710Z,7.72
2022-12-17T06:06:16.179Z,7.57
2022-12-17T06:09:07.326Z,8.50
2022-12-17T06:12:02.536Z,7.13
2022-12-17T06:14:54.261Z,8.10
2022-12-17T06:17:45.288Z,8.05
2022-12-17T06:20:36.469Z,8.25
2022-12-17T06:23:29.687Z,8.80
2022-12-17T06:26:20.319Z,11.07
2022-12-17T06:29:10.723Z,12.75
2022-12-17T06:32:02.389Z,10.27
2022-12-17T06:34:53.291Z,9.20
2022-12-17T06:37:44.872Z,8.93
2022-12-17T06:40:36.523Z,9.27
2022-12-17T06:43:27.770Z,8.20
2022-12-17T06:46:17.968Z,10.15
2022-12-17T06:49:09.076Z,7.97
2022-12-17T06:51:59.193Z,8.90
2022-12-17T06:54:50.140Z,9.73
2022-12-17T06:57:41.828Z,9.68
2022-12-17T07:00:35.481Z,9.25
2022-12-17T07:03:30.525Z,8.77
2022-12-17T07:06:21.706Z,9.00
2022-12-17T07:09:12.446Z,10.17
2022-12-17T07:12:02.996Z,10.13
2022-12-17T07:14:54.158Z,8.65
2022-12-17T07:17:47.284Z,9.65
2022-12-17T07:20:38.340Z,9.32
2022-12-17T07:23:29.061Z,9.07
2022-12-17T07:26:19.719Z,8.40
2022-12-17T07:29:10.591Z,8.98
2022-12-17T07:32:01.785Z,9.23
2022-12-17T07:34:52.710Z,9.55
2022-12-17T07:37:43.865Z,8.77
2022-12-17T07:40:34.966Z,8.40
2022-12-17T07:43:31.401Z,9.30
2022-12-17T07:46:22.023Z,8.00
2022-12-17T07:49:13.395Z,9.23
2022-12-17T07:52:04.407Z,8.40
2022-12-17T07:54:54.628Z,8.95
2022-12-17T07:57:45.972Z,8.55
2022-12-17T08:00:36.323Z,9.13
2022-12-17T08:03:29.125Z,8.30
2022-12-17T08:06:19.779Z,8.37
2022-12-17T08:09:09.982Z,9.60
2022-12-17T08:12:01.153Z,11.18
2022-12-17T08:14:51.339Z,11.60
2022-12-17T08:17:43.826Z,11.05
2022-12-17T08:20:34.851Z,10.80
2022-12-17T08:23:26.140Z,12.30
2022-12-17T08:26:16.382Z,10.80
2022-12-17T08:29:07.524Z,11.70
2022-12-17T08:31:57.870Z,9.90
2022-12-17T08:34:48.927Z,10.77
2022-12-17T08:37:39.345Z,10.10
2022-12-17T08:40:30.229Z,9.80
2022-12-17T08:43:20.444Z,9.93
2022-12-17T08:46:12.451Z,8.90
2022-12-17T08:49:03.108Z,10.90
2022-12-17T08:51:54.153Z,10.35
2022-12-17T08:54:44.628Z,11.52
2022-12-17T08:57:36.821Z,10.65
2022-12-17T09:00:28.565Z,11.40
2022-12-17T09:03:21.793Z,12.67
2022-12-17T09:06:12.654Z,12.25
2022-12-17T09:09:03.790Z,12.90
2022-12-17T09:11:55.735Z,13.23
2022-12-17T09:14:47.324Z,14.38
2022-12-17T09:17:38.972Z,13.33
2022-12-17T09:20:29.803Z,14.00
2022-12-17T09:23:20.963Z,13.60
2022-12-17T09:26:13.054Z,12.15
2022-12-17T09:29:04.115Z,12.95
2022-12-17T09:31:54.310Z,13.53
2022-12-17T09:37:56.471Z,12.27
2022-12-17T09:40:49.736Z,12.48
2022-12-17T09:44:03.045Z,16.10
2022-12-17T09:47:26.036Z,14.33
2022-12-17T09:50:20.134Z,14.40
2022-12-17T09:53:10.522Z,12.75
2022-12-17T09:56:10.713Z,14.38
2022-12-17T09:59:01.423Z,13.15
2022-12-17T10:01:55.048Z,15.40
2022-12-17T10:04:54.053Z,15.45
2022-12-17T10:07:52.142Z,14.43
2022-12-17T10:10:47.943Z,15.13
2022-12-17T10:13:42.511Z,15.40
2022-12-17T10:16:53.128Z,16.97
2022-12-17T10:19:51.377Z,16.95
2022-12-17T10:22:44.503Z,13.77
2022-12-17T10:25:38.884Z,17.02
2022-12-17T10:28:41.501Z,16.88
2022-12-17T10:31:39.010Z,18.60
2022-12-17T10:34:37.472Z,17.88
2022-12-17T10:37:46.461Z,16.75
2022-12-17T10:40:45.627Z,16.98
2022-12-17T10:43:59.079Z,18.05
2022-12-17T10:46:52.509Z,18.27
2022-12-17T10:49:44.540Z,16.92
2022-12-17T10:52:49.569Z,17.10
2022-12-17T10:55:49.656Z,15.90
2022-12-17T10:58:50.922Z,14.27
2022-12-17T11:01:44.616Z,17.37
2022-12-17T11:04:52.330Z,17.25
2022-12-17T11:07:56.149Z,15.85
2022-12-17T11:10:51.454Z,15.05
2022-12-17T11:13:51.588Z,15.35
2022-12-17T11:16:50.071Z,17.60
2022-12-17T11:20:05.135Z,15.95
2022-12-17T11:23:05.481Z,15.77
2022-12-17T11:26:38.954Z,15.68
2022-12-17T11:29:47.092Z,16.67
2022-12-17T11:33:13.679Z,17.07
2022-12-17T11:36:36.917Z,18.45
2022-12-17T11:39:47.732Z,18.10
2022-12-17T11:42:48.620Z,17.70
2022-12-17T11:46:19.436Z,15.57
2022-12-17T11:49:51.028Z,13.53
2022-12-17T11:56:54.784Z,16.02
2022-12-17T12:00:23.480Z,17.33
2022-12-17T12:04:24.789Z,15.75
2022-12-17T12:07:35.282Z,15.80
2022-12-17T12:10:36.284Z,15.25
2022-12-17T12:13:39.917Z,14.77
2022-12-17T12:16:43.956Z,14.82
2022-12-17T12:19:53.067Z,14.80
2022-12-17T12:23:06.313Z,14.73
2022-12-17T12:26:33.376Z,16.70
2022-12-17T12:29:55.328Z,15.50
2022-12-17T12:33:05.500Z,18.35
2022-12-17T12:36:00.570Z,16.55
2022-12-17T12:38:59.963Z,16.00
2022-12-17T12:42:44.384Z,17.00
2022-12-17T12:46:06.867Z,18.10
2022-12-17T12:49:22.896Z,15.13
2022-12-17T12:52:15.585Z,15.32
2022-12-17T12:55:06.093Z,16.27
2022-12-17T12:58:03.524Z,16.83
2022-12-17T13:01:14.947Z,16.52
2022-12-17T13:04:05.807Z,15.98
2022-12-17T13:06:54.602Z,16.25
2022-12-17T13:09:34.467Z,12.60
2022-12-17T13:12:32.409Z,17.15
2022-12-17T13:15:07.257Z,16.77
2022-12-17T13:18:07.534Z,16.85
2022-12-17T13:20:39.596Z,14.80
2022-12-17T13:23:12.210Z,16.00
2022-12-17T13:25:44.551Z,17.10
2022-12-17T13:28:29.859Z,17.83
2022-12-17T13:31:16.343Z,18.88
2022-12-17T13:33:54.029Z,17.77
2022-12-17T13:37:07.269Z,16.00
2022-12-17T13:40:02.534Z,16.95
2022-12-17T13:42:36.877Z,19.15
2022-12-17T13:45:20.076Z,16.70
2022-12-17T13:47:58.772Z,17.73
2022-12-17T13:50:34.354Z,18.70
2022-12-17T13:53:13.552Z,18.08
2022-12-17T13:55:51.556Z,19.02
2022-12-17T13:58:29.547Z,16.77
2022-12-17T14:01:12.801Z,19.50
2022-12-17T14:04:06.724Z,18.60
2022-12-17T14:06:39.234Z,17.80
2022-12-17T14:09:18.728Z,19.50
2022-12-17T14:12:10.041Z,20.92
2022-12-17T14:14:47.497Z,18.63
2022-12-17T14:17:26.116Z,17.50
2022-12-17T14:20:06.553Z,17.27
2022-12-17T14:22:50.772Z,19.15
2022-12-17T14:25:30.079Z,17.92
2022-12-17T14:28:29.027Z,17.20
2022-12-17T14:31:29.354Z,19.53
2022-12-17T14:34:11.159Z,18.40
2022-12-17T14:36:44.862Z,19.38
2022-12-17T14:39:31.987Z,86.68
2022-12-17T14:42:25.898Z,19.98
2022-12-17T14:45:07.692Z,20.03
2022-12-17T14:47:40.706Z,19.02
2022-12-17T14:50:12.618Z,18.30
2022-12-17T14:52:53.608Z,19.85
2022-12-17T14:55:58.734Z,19.98
2022-12-17T14:58:31.551Z,19.43
2022-12-17T15:01:13.200Z,19.77
2022-12-17T15:03:49.354Z,20.30
2022-12-17T15:06:22.652Z,20.30
2022-12-17T15:08:56.017Z,19.83
2022-12-17T15:11:29.687Z,20.53
2022-12-17T15:14:02.677Z,20.58
2022-12-17T15:16:35.110Z,21.08
2022-12-17T15:19:14.878Z,22.63
2022-12-17T15:21:47.448Z,22.15
2022-12-17T15:24:21.448Z,22.13
2022-12-17T15:26:53.744Z,22.38
2022-12-17T15:29:26.617Z,22.77
2022-12-17T15:31:59.753Z,22.17
2022-12-17T15:34:32.660Z,20.33
2022-12-17T15:37:05.751Z,21.60
2022-12-17T15:39:37.808Z,21.58
2022-12-17T15:42:29.513Z,21.35
2022-12-17T15:45:01.581Z,22.05
2022-12-17T15:47:33.900Z,22.30
2022-12-17T15:50:07.824Z,31.40
2022-12-17T15:52:40.589Z,22.70
2022-12-17T15:55:13.004Z,21.52
2022-12-17T15:57:45.075Z,25.10
2022-12-17T16:00:18.734Z,20.73
2022-12-17T16:02:51.568Z,21.93
2022-12-17T16:05:24.616Z,19.63
2022-12-17T16:07:59.226Z,19.92
2022-12-17T16:10:32.442Z,20.45
2022-12-17T16:13:05.192Z,29.02
2022-12-17T16:15:37.934Z,22.90
2022-12-17T16:18:10.102Z,24.10
2022-12-17T16:20:44.061Z,20.83
2022-12-17T16:23:17.151Z,22.60
2022-12-17T16:26:01.580Z,37.05
2022-12-17T16:28:36.627Z,21.57
2022-12-17T16:31:14.376Z,24.65
2022-12-17T16:33:48.384Z,56.75
2022-12-17T16:36:22.955Z,24.25
2022-12-17T16:38:55.752Z,23.35
2022-12-17T16:41:28.496Z,25.43
2022-12-17T16:44:01.456Z,37.83
2022-12-17T16:46:40.187Z,24.48
2022-12-17T16:49:19.561Z,22.30
2022-12-17T16:54:46.725Z,55.37
2022-12-17T16:57:18.642Z,21.38
2022-12-17T16:59:51.790Z,20.65
2022-12-17T17:02:24.355Z,22.42
2022-12-17T17:04:57.690Z,23.80
2022-12-17T17:07:30.060Z,22.77
2022-12-17T17:10:01.984Z,23.00
2022-12-17T17:12:34.805Z,20.40
2022-12-17T17:15:07.800Z,23.13
2022-12-17T17:17:54.029Z,23.58
2022-12-17T17:20:32.278Z,25.20
2022-12-17T17:23:05.544Z,20.52
2022-12-17T17:25:57.409Z,22.05
2022-12-17T17:28:30.374Z,23.02
2022-12-17T17:31:05.348Z,24.48
2022-12-17T17:33:41.377Z,23.70
2022-12-17T17:36:29.375Z,25.00
2022-12-17T17:39:02.986Z,25.40
2022-12-17T17:41:35.876Z,23.17
2022-12-17T17:44:11.645Z,25.40
2022-12-17T17:46:44.457Z,21.47
2022-12-17T17:49:17.505Z,23.67
2022-12-17T17:54:43.834Z,24.27
2022-12-17T17:57:16.716Z,23.73
2022-12-17T17:59:49.199Z,21.93
2022-12-17T18:02:21.453Z,21.95
2022-12-17T18:04:54.736Z,22.05
2022-12-17T18:07:27.493Z,25.10
2022-12-17T18:10:00.513Z,22.60
2022-12-17T18:12:50.756Z,23.03
2022-12-17T18:15:23.512Z,22.05
2022-12-17T18:17:55.382Z,21.33
2022-12-17T18:20:28.234Z,22.45
2022-12-17T18:23:00.341Z,20.98
2022-12-17T18:25:37.676Z,20.50
2022-12-17T18:28:09.906Z,21.77
2022-12-17T18:30:45.520Z,18.50
2022-12-17T18:33:17.569Z,25.73
2022-12-17T18:35:50.973Z,20.00
2022-12-17T18:38:23.032Z,19.90
2022-12-17T18:40:56.569Z,20.83
2022-12-17T18:43:28.642Z,33.72
2022-12-17T18:46:04.809Z,29.00
2022-12-17T18:48:37.995Z,22.35
2022-12-17T18:51:10.833Z,22.83
2022-12-17T18:53:43.832Z,26.25
2022-12-17T18:56:31.658Z,20.92
2022-12-17T18:59:13.322Z,18.48
2022-12-17T19:01:47.230Z,24.05
2022-12-17T19:04:21.618Z,21.73
2022-12-17T19:06:55.071Z,19.42
2022-12-17T19:09:38.410Z,21.90
2022-12-17T19:12:11.272Z,20.08
2022-12-17T19:14:43.730Z,24.70
2022-12-17T19:17:16.208Z,29.33
2022-12-17T19:19:48.476Z,22.50
2022-12-17T19:22:21.193Z,22.42
2022-12-17T19:24:53.738Z,22.65
2022-12-17T19:27:26.878Z,21.05
2022-12-17T19:29:58.823Z,22.17
2022-12-17T19:32:31.518Z,27.50
2022-12-17T19:35:04.005Z,22.10
2022-12-17T19:37:35.934Z,20.50
2022-12-17T19:40:09.849Z,20.50
2022-12-17T19:42:41.859Z,21.30
2022-12-17T19:45:15.882Z,19.77
2022-12-17T19:47:49.660Z,21.25
2022-12-17T19:50:21.570Z,22.33
2022-12-17T19:52:54.379Z,21.63
2022-12-17T19:55:26.348Z,20.57
2022-12-17T19:58:21.091Z,20.42
2022-12-17T20:00:53.057Z,20.27
2022-12-17T20:03:26.712Z,18.83
2022-12-17T20:05:59.381Z,18.95
2022-12-17T20:08:33.176Z,20.77
2022-12-17T20:11:26.486Z,20.77
2022-12-17T20:14:14.937Z,17.88
2022-12-17T20:16:54.124Z,19.75
2022-12-17T20:19:31.759Z,21.80
2022-12-17T20:22:05.267Z,22.27
2022-12-17T20:24:39.692Z,21.73
2022-12-17T20:27:11.623Z,24.00
2022-12-17T20:29:44.399Z,21.33
2022-12-17T20:32:19.291Z,17.40
2022-12-17T20:34:52.658Z,18.43
2022-12-17T20:37:24.987Z,20.17
2022-12-17T20:39:56.887Z,18.25
2022-12-17T20:42:32.559Z,20.83
2022-12-17T20:45:04.827Z,23.17
2022-12-17T20:47:40.459Z,42.97
2022-12-17T20:50:13.312Z,22.13
2022-12-17T20:52:45.229Z,19.92
2022-12-17T20:55:18.078Z,21.52
2022-12-17T20:57:50.302Z,21.20
2022-12-17T21:00:23.050Z,19.67
2022-12-17T21:02:59.929Z,20.38
2022-12-17T21:05:36.060Z,22.63
2022-12-17T21:08:08.462Z,21.92
2022-12-17T21:10:41.189Z,19.98
2022-12-17T21:13:31.121Z,21.73
2022-12-17T21:16:08.144Z,19.50
2022-12-17T21:18:41.122Z,20.73
2022-12-17T21:21:18.679Z,20.45
2022-12-17T21:23:51.464Z,22.63
2022-12-17T21:26:31.446Z,20.80
2022-12-17T21:29:06.068Z,19.58
2022-12-17T21:31:53.022Z,19.90
2022-12-17T21:34:29.054Z,20.83
2022-12-17T21:37:02.190Z,20.83
2022-12-17T21:39:34.520Z,19.30
2022-12-17T21:42:25.459Z,21.05
2022-12-17T21:44:57.828Z,20.27
2022-12-17T21:47:30.341Z,21.35
2022-12-17T21:50:03.167Z,21.80
2022-12-17T21:52:35.893Z,20.40
2022-12-17T21:55:08.574Z,18.88
2022-12-17T21:57:40.863Z,19.77
2022-12-17T22:00:14.369Z,19.67
2022-12-17T22:02:47.509Z,19.15
2022-12-17T22:05:23.577Z,19.53
2022-12-17T22:07:56.383Z,18.55
2022-12-17T22:10:36.783Z,18.85
2022-12-17T22:13:35.883Z,18.73
2022-12-17T22:16:09.024Z,18.58
2022-12-17T22:18:41.220Z,19.17
2022-12-17T22:21:14.164Z,18.38
2022-12-17T22:23:48.197Z,17.83
2022-12-17T22:26:21.714Z,19.67
2022-12-17T22:28:54.055Z,17.52
2022-12-17T22:31:46.061Z,18.93
2022-12-17T22:35:28.922Z,18.52
2022-12-17T22:40:06.150Z,18.95
2022-12-17T22:44:35.059Z,18.92
2022-12-17T22:44:42.341Z,19.75
2022-12-17T22:46:07.945Z,20.43
2022-12-17T22:48:40.978Z,19.33
2022-12-17T22:51:21.059Z,19.33
2022-12-17T22:54:06.448Z,21.92
2022-12-17T22:57:12.853Z,19.25
2022-12-17T22:59:33.930Z,20.30
2022-12-17T23:02:08.419Z,20.92
2022-12-17T23:04:42.456Z,21.45
2022-12-17T23:07:14.936Z,22.77
2022-12-17T23:09:47.093Z,21.77
2022-12-17T23:12:37.926Z,21.03
2022-12-17T23:15:10.673Z,20.42
2022-12-17T23:17:43.679Z,21.23
2022-12-17T23:20:16.935Z,21.15
2022-12-17T23:22:48.941Z,19.67
2022-12-17T23:25:23.758Z,20.90
2022-12-17T23:27:55.804Z,20.95
2022-12-17T23:30:28.591Z,20.33
2022-12-17T23:33:00.545Z,20.02
2022-12-17T23:35:33.268Z,19.38
2022-12-17T23:38:05.679Z,21.13
2022-12-17T23:40:37.580Z,20.73
2022-12-17T23:43:15.815Z,19.85
2022-12-17T23:45:49.804Z,22.02
2022-12-17T23:48:22.667Z,17.77
2022-12-17T23:50:54.549Z,17.63
2022-12-17T23:53:29.519Z,15.55
2022-12-17T23:56:32.588Z,16.55
2022-12-17T23:59:04.612Z,15.02
